»·PEaware :: SKW2749 KBOI-KCEC

SKW2749 :: KBOI-KCEC

FLIGHT INFORMATION

Flight Status: Arrived
Operator:
SkyWest Airlines
More flights by this operator :: More flights under this callsign
Pilot: Paul K. (16555)
Aircraft: BOEING 727-200
(B722)
More flights by this aircraft type
Origin: KBOI Boise Air Terminal/Gowen
United States
Destination: KCEC McNamara
United States
More flights between these airports :: More routes between these airports
Route: +BOI3 BOI EVANT WZZRD CEC DCT
File this flight plan on PilotEdge
Remarks:
Altitude:
(Current/Filed)
32,000ft
Speed:
(Current/Filed)
500kts
Departed: 23-Sep-18 06:34 PM
Arrived: 23-Sep-18 08:06 PM
Distance/Time
Traveled:
369nm/1:32
Distance/Time
To Go:
Arrived

Flight Plot

Page will automatically refresh every two minutes.

Flight plan parsing failed; only flown route is shown


Map Options




Map Legend


Flown Route
Filed Route
Departure Airport
Arrival Airport
Navaid (VOR, NDB)
Fix

Horizontal Profiles

Position Reports

Time Latitude Longitude Heading Altitude Ground
Speed
23-Sep-18 18:09 43.565244 -116.211659 268 2883ft 0kts
23-Sep-18 18:10 43.565244 -116.211659 268 2883ft 0kts
23-Sep-18 18:11 43.565244 -116.211659 268 2883ft 0kts
23-Sep-18 18:12 43.565244 -116.211659 268 2883ft 0kts
23-Sep-18 18:13 43.565244 -116.211659 268 2883ft 0kts
23-Sep-18 18:14 43.565244 -116.211659 268 2883ft 0kts
23-Sep-18 18:15 43.565244 -116.211659 268 2883ft 0kts
23-Sep-18 18:16 43.565244 -116.211659 268 2883ft 0kts
23-Sep-18 18:17 43.565244 -116.211659 268 2883ft 0kts
23-Sep-18 18:18 43.565244 -116.211659 268 2883ft 0kts
23-Sep-18 18:19 43.565244 -116.211659 268 2883ft 0kts
23-Sep-18 18:20 43.565244 -116.211659 268 2883ft 0kts
23-Sep-18 18:21 43.565244 -116.211659 268 2883ft 0kts
23-Sep-18 18:22 43.565244 -116.211659 268 2883ft 0kts
23-Sep-18 18:23 43.565244 -116.211659 268 2883ft 0kts
23-Sep-18 18:24 43.565244 -116.211659 268 2883ft 0kts
23-Sep-18 18:25 43.565244 -116.211659 268 2883ft 0kts
23-Sep-18 18:26 43.565244 -116.211659 268 2883ft 0kts
23-Sep-18 18:27 43.565244 -116.211660 268 2883ft 0kts
23-Sep-18 18:28 43.565244 -116.211660 268 2883ft 0kts
23-Sep-18 18:29 43.565244 -116.211660 268 2883ft 0kts
23-Sep-18 18:30 43.564490 -116.214309 209 2883ft 8kts
23-Sep-18 18:31 43.563692 -116.214181 131 2883ft 11kts
23-Sep-18 18:32 43.562050 -116.209572 117 2883ft 15kts
23-Sep-18 18:33 43.559989 -116.203638 117 2883ft 18kts
23-Sep-18 18:34 43.559615 -116.202739 132 2883ft 0kts
23-Sep-18 18:35 43.558729 -116.202763 220 2883ft 1kts
23-Sep-18 18:36 43.567024 -116.227963 295 3171ft 150kts
23-Sep-18 18:37 43.583051 -116.285990 298 4614ft 206kts
23-Sep-18 18:38 43.608986 -116.373085 299 6953ft 272kts
23-Sep-18 18:39 43.637017 -116.447608 297 9805ft 279kts
23-Sep-18 18:51 43.565244 -116.211659 268 2883ft 0kts
23-Sep-18 18:52 43.565244 -116.211659 268 2883ft 0kts
23-Sep-18 18:53 43.565244 -116.211659 268 2883ft 0kts
23-Sep-18 18:54 43.565244 -116.211659 268 2883ft 0kts
23-Sep-18 18:55 43.565244 -116.211659 268 2883ft 0kts
23-Sep-18 18:56 43.564842 -116.213792 241 2883ft 10kts
23-Sep-18 18:57 43.563118 -116.212646 112 2883ft 11kts
23-Sep-18 18:58 43.561552 -116.208022 114 2883ft 15kts
23-Sep-18 18:59 43.559687 -116.202783 137 2883ft 8kts
23-Sep-18 19:00 43.559307 -116.204876 295 2883ft 21kts
23-Sep-18 19:01 43.571621 -116.242820 295 3797ft 147kts
23-Sep-18 19:02 43.589056 -116.312148 294 5456ft 234kts
23-Sep-18 19:03 43.612451 -116.401786 271 8177ft 285kts
23-Sep-18 19:04 43.594879 -116.515150 262 10910ft 327kts
23-Sep-18 19:05 43.582116 -116.642744 264 14072ft 343kts
23-Sep-18 19:06 43.570605 -116.775224 264 16900ft 356kts
23-Sep-18 19:07 43.558837 -116.912067 265 19381ft 367kts
23-Sep-18 19:08 43.546526 -117.053392 266 21571ft 378kts
23-Sep-18 19:09 43.533677 -117.199234 267 23453ft 388kts
23-Sep-18 19:10 43.520347 -117.348442 267 25111ft 398kts
23-Sep-18 19:11 43.506497 -117.501456 267 26552ft 408kts
23-Sep-18 19:12 43.492114 -117.657710 267 27973ft 412kts
23-Sep-18 19:13 43.477383 -117.814925 267 29197ft 419kts
23-Sep-18 19:14 43.462177 -117.975284 268 30258ft 427kts
23-Sep-18 19:15 43.446467 -118.138439 268 31181ft 434kts
23-Sep-18 19:16 43.430317 -118.303730 268 32026ft 441kts
23-Sep-18 19:17 43.413373 -118.474897 268 32120ft 463kts
23-Sep-18 19:18 43.395532 -118.651975 267 32123ft 483kts
23-Sep-18 19:19 43.375523 -118.836535 266 32119ft 496kts
23-Sep-18 19:20 43.353634 -119.024663 267 32121ft 501kts
23-Sep-18 19:21 43.331453 -119.213428 267 32119ft 501kts
23-Sep-18 19:22 43.308918 -119.401976 267 32123ft 501kts
23-Sep-18 19:23 43.286029 -119.590570 267 32118ft 501kts
23-Sep-18 19:24 43.263014 -119.777562 267 32125ft 501kts
23-Sep-18 19:25 43.239578 -119.965437 267 32123ft 501kts
23-Sep-18 19:26 43.215817 -120.153308 267 32125ft 501kts
23-Sep-18 19:27 43.195719 -120.310384 266 32122ft 502kts
23-Sep-18 19:28 43.167259 -120.529617 267 32124ft 502kts
23-Sep-18 19:29 43.146984 -120.683565 266 32152ft 501kts
23-Sep-18 19:30 43.118098 -120.900315 266 32151ft 502kts
23-Sep-18 19:31 43.092721 -121.088157 266 32140ft 504kts
23-Sep-18 19:32 43.071233 -121.245186 265 32129ft 505kts
23-Sep-18 19:33 43.045072 -121.434082 265 32118ft 507kts
23-Sep-18 19:34 43.018591 -121.623024 265 32114ft 508kts
23-Sep-18 19:35 42.989409 -121.828484 264 32117ft 510kts
23-Sep-18 19:36 42.967765 -121.979111 264 32115ft 512kts
23-Sep-18 19:37 42.915609 -122.191048 241 32113ft 531kts
23-Sep-18 19:38 42.857632 -122.304313 238 32096ft 535kts
23-Sep-18 19:39 42.771117 -122.465052 238 32076ft 511kts
23-Sep-18 19:40 42.690925 -122.612892 238 31032ft 478kts
23-Sep-18 19:41 42.614297 -122.753496 237 29074ft 471kts
23-Sep-18 19:42 42.537183 -122.894267 237 27084ft 463kts
23-Sep-18 19:43 42.461306 -123.032166 236 25099ft 454kts
23-Sep-18 19:44 42.386961 -123.166607 235 23105ft 442kts
23-Sep-18 19:45 42.314175 -123.297658 235 21121ft 433kts
23-Sep-18 19:46 42.243580 -123.424197 235 19124ft 407kts
23-Sep-18 19:47 42.179091 -123.539314 235 17094ft 360kts
23-Sep-18 19:48 42.122733 -123.639575 235 15063ft 317kts
23-Sep-18 19:49 42.073509 -123.726885 234 13093ft 287kts
23-Sep-18 19:50 42.026696 -123.809095 234 11086ft 269kts
23-Sep-18 19:51 41.982755 -123.885276 234 9323ft 257kts
23-Sep-18 19:52 41.939951 -123.958027 234 7320ft 243kts
23-Sep-18 19:53 41.900221 -124.026983 240 5745ft 223kts
23-Sep-18 19:54 41.874276 -124.090152 256 4727ft 211kts
23-Sep-18 19:55 41.858632 -124.165877 272 3713ft 213kts
23-Sep-18 19:56 41.869870 -124.235026 298 2606ft 177kts
23-Sep-18 19:57 41.890800 -124.285456 260 1402ft 150kts
23-Sep-18 19:58 41.868891 -124.312333 215 1495ft 162kts
23-Sep-18 19:59 41.832946 -124.313512 130 1123ft 145kts
23-Sep-18 20:00 41.805667 -124.271517 127 748ft 150kts
23-Sep-18 20:01 41.777585 -124.231099 126 74ft 149kts
23-Sep-18 20:02 41.737282 -124.202745 219 1950ft 198kts
23-Sep-18 20:03 41.723259 -124.258874 323 2050ft 193kts
23-Sep-18 20:04 41.754284 -124.314503 309 1556ft 159kts
23-Sep-18 20:05 41.781508 -124.341298 37 931ft 131kts
23-Sep-18 20:06 41.810238 -124.301956 45 1368ft 150kts
23-Sep-18 20:07 41.794525 -124.255676 125 471ft 146kts
23-Sep-18 20:08 41.775535 -124.228652 207 69ft 7kts
23-Sep-18 20:09 41.776774 -124.232083 314 69ft 14kts
23-Sep-18 20:10 41.778293 -124.236250 259 69ft 11kts
23-Sep-18 20:11 41.778152 -124.236642 214 69ft 0kts
23-Sep-18 20:12 41.778152 -124.236642 214 69ft 0kts
23-Sep-18 20:13 41.778153 -124.236642 214 69ft 0kts
23-Sep-18 20:14 41.778153 -124.236642 214 69ft 0kts
23-Sep-18 20:15 41.778153 -124.236642 214 69ft 0kts
23-Sep-18 20:16 41.778153 -124.236642 214 69ft 0kts
23-Sep-18 20:17 41.778153 -124.236642 214 69ft 0kts
23-Sep-18 20:18 41.778153 -124.236642 214 69ft 0kts
23-Sep-18 20:19 41.778153 -124.236642 214 69ft 0kts
23-Sep-18 20:20 41.778153 -124.236642 214 69ft 0kts
23-Sep-18 20:21 41.778153 -124.236642 214 69ft 0kts
23-Sep-18 20:22 41.778153 -124.236642 214 69ft 0kts

Navigation Log

Ident Type
Flight plan parsing failed, navigation log unavailable